Time;durP1;ratioP1;P1;durP2;ratioP2;P2;SDS_P1;SDS_P2;PMS_P1;PMS_P2;Temp;Humidity;BMP_temperature;BMP_pressure;BME280_temperature;BME280_humidity;BME280_pressure;Samples;Min_cycle;Max_cycle;Signal;HPM_P1;HPM_P2
2022/05/01 00:00:11;;;;;;;5.05;2.60;;;19.50;56.40;;;;;;10904498;32;20023;-74
2022/05/01 00:06:13;;;;;;;4.25;2.72;;;19.60;57.00;;;;;;10903917;32;20024;-74
2022/05/01 00:12:16;;;;;;;8.48;3.83;;;19.50;57.20;;;;;;10904207;32;20301;-74
2022/05/01 00:18:19;;;;;;;6.57;4.10;;;19.40;58.10;;;;;;10903047;32;20019;-74
2022/05/01 00:24:22;;;;;;;4.35;2.92;;;19.30;58.10;;;;;;10903949;32;20080;-74
2022/05/01 00:30:28;;;;;;;5.72;3.12;;;19.30;58.30;;;;;;10903857;32;20336;-74
2022/05/01 00:36:31;;;;;;;5.03;3.28;;;19.20;58.90;;;;;;10903930;32;20445;-74
2022/05/01 00:42:33;;;;;;;4.78;3.35;;;19.20;59.60;;;;;;10903614;32;20045;-74
2022/05/01 00:48:35;;;;;;;5.80;4.00;;;19.10;59.60;;;;;;10903680;32;20309;-74
2022/05/01 00:54:40;;;;;;;5.55;3.40;;;19.10;59.80;;;;;;10903560;32;20371;-74
2022/05/01 01:00:43;;;;;;;7.40;3.40;;;19.10;60.00;;;;;;10903329;32;20024;-70
2022/05/01 01:06:45;;;;;;;4.78;3.35;;;19.10;60.10;;;;;;10908809;32;20027;-70
2022/05/01 01:12:54;;;;;;;6.22;3.70;;;19.00;60.30;;;;;;10908962;32;20027;-70
2022/05/01 01:18:57;;;;;;;7.68;3.40;;;19.00;60.70;;;;;;10498396;27;12325107;-70
2022/05/01 01:25:00;;;;;;;5.97;4.15;;;19.00;60.80;;;;;;10864134;32;20061;-70
2022/05/01 01:37:24;;;;;;;4.82;3.30;;;18.90;61.30;;;;;;10868586;32;20027;-70
2022/05/01 01:43:29;;;;;;;3.95;3.10;;;18.90;61.30;;;;;;10868421;32;20118;-70
2022/05/01 01:49:31;;;;;;;5.85;3.83;;;18.90;61.50;;;;;;10923379;32;20088;-70
2022/05/01 01:55:35;;;;;;;3.83;2.62;;;18.80;61.40;;;;;;10946787;32;20023;-70
2022/05/01 02:01:42;;;;;;;3.90;2.95;;;18.80;61.40;;;;;;10945916;32;20289;-70
2022/05/01 02:07:45;;;;;;;10.07;2.50;;;18.80;61.40;;;;;;10945545;32;20065;-70
2022/05/01 02:13:47;;;;;;;3.37;2.47;;;18.80;61.70;;;;;;10944816;32;20046;-70
2022/05/01 02:19:49;;;;;;;3.25;2.42;;;18.80;62.30;;;;;;10945367;32;20045;-70
2022/05/01 02:25:51;;;;;;;3.65;2.50;;;18.70;62.30;;;;;;10945025;32;20050;-69
2022/05/01 02:31:53;;;;;;;2.55;1.73;;;18.70;62.60;;;;;;10944791;32;20066;-69
2022/05/01 02:37:57;;;;;;;4.22;2.25;;;18.70;62.90;;;;;;10944703;32;20022;-69
2022/05/01 02:43:59;;;;;;;3.97;2.60;;;18.70;63.20;;;;;;10944384;32;20042;-70
2022/05/01 02:50:03;;;;;;;5.65;2.42;;;18.70;62.90;;;;;;10944235;32;20339;-70
2022/05/01 02:56:05;;;;;;;3.80;2.47;;;18.70;62.90;;;;;;10930504;32;20050;-70
2022/05/01 03:02:08;;;;;;;3.87;2.20;;;18.70;63.20;;;;;;10930302;32;20045;-69
2022/05/01 03:08:12;;;;;;;3.95;2.35;;;18.60;63.30;;;;;;10943505;32;20343;-70
2022/05/01 03:14:14;;;;;;;2.42;1.70;;;18.60;63.20;;;;;;10943267;32;20031;-70
2022/05/01 03:26:37;;;;;;;2.92;2.03;;;18.50;63.00;;;;;;10942802;32;20022;-70
2022/05/01 03:32:38;;;;;;;4.22;2.62;;;18.50;62.90;;;;;;10942852;32;20429;-70
2022/05/01 03:38:42;;;;;;;3.35;2.42;;;18.60;62.90;;;;;;10942561;32;20019;-70
2022/05/01 03:44:45;;;;;;;3.05;1.85;;;18.50;63.00;;;;;;10942313;32;20027;-70
2022/05/01 03:50:51;;;;;;;5.18;2.42;;;18.50;63.00;;;;;;10942356;32;20319;-70
2022/05/01 03:57:01;;;;;;;2.03;1.40;;;18.40;63.10;;;;;;10942087;32;20077;-70
2022/05/01 04:03:04;;;;;;;3.37;2.55;;;18.30;63.70;;;;;;10941916;32;20061;-70
2022/05/01 04:09:06;;;;;;;6.47;3.25;;;18.30;63.60;;;;;;10941842;32;20049;-70
2022/05/01 04:15:11;;;;;;;5.28;3.92;;;18.30;63.60;;;;;;10941761;32;20326;-70
2022/05/01 04:21:13;;;;;;;5.00;3.42;;;18.30;63.60;;;;;;10928200;32;20011;-70
2022/05/01 04:27:16;;;;;;;4.37;3.37;;;18.20;63.70;;;;;;10941477;32;20045;-70
2022/05/01 04:33:18;;;;;;;4.30;1.95;;;18.20;63.80;;;;;;10941418;32;20355;-70
2022/05/01 04:39:20;;;;;;;3.47;2.80;;;18.20;63.80;;;;;;10945470;32;20316;-70
2022/05/01 04:45:22;;;;;;;3.10;2.67;;;18.10;64.00;;;;;;10948719;32;20335;-70
2022/05/01 04:51:24;;;;;;;4.32;3.15;;;18.10;64.00;;;;;;10948340;32;20027;-70
2022/05/01 04:57:28;;;;;;;5.47;2.50;;;18.00;64.10;;;;;;10949534;32;20400;-70
2022/05/01 05:03:29;;;;;;;3.42;2.60;;;18.00;64.10;;;;;;10948076;32;20015;-70
2022/05/01 05:15:59;;;;;;;3.03;2.20;;;18.00;64.10;;;;;;10947890;32;20050;-73
2022/05/01 05:22:01;;;;;;;4.37;2.87;;;18.00;64.10;;;;;;10947326;32;20019;-73
2022/05/01 05:28:07;;;;;;;2.80;2.08;;;18.00;64.40;;;;;;10947170;32;20073;-73
2022/05/01 05:34:10;;;;;;;4.28;2.37;;;18.10;64.20;;;;;;10933606;32;20023;-73
2022/05/01 05:40:12;;;;;;;3.80;2.17;;;18.10;64.10;;;;;;10946793;32;20023;-73
2022/05/01 05:46:14;;;;;;;3.25;1.90;;;18.20;64.00;;;;;;10933221;32;20015;-73
2022/05/01 05:52:22;;;;;;;2.28;2.00;;;18.20;64.10;;;;;;10946236;32;20018;-73
2022/05/01 05:58:25;;;;;;;3.65;2.15;;;18.30;64.00;;;;;;10946191;32;20053;-73
2022/05/01 06:04:27;;;;;;;2.85;2.15;;;18.50;63.90;;;;;;10946013;32;20042;-74
2022/05/01 06:10:30;;;;;;;5.60;2.35;;;18.60;63.60;;;;;;10927969;32;20042;-74
2022/05/01 06:16:55;;;;;;;3.28;2.40;;;18.80;63.20;;;;;;10931988;32;20045;-74
2022/05/01 06:22:58;;;;;;;4.05;2.95;;;18.90;62.80;;;;;;10944939;32;20026;-73
2022/05/01 06:29:04;;;;;;;6.53;3.72;;;19.00;62.60;;;;;;10944618;32;20127;-72
2022/05/01 06:35:12;;;;;;;3.03;2.03;;;19.10;62.60;;;;;;10944940;32;20425;-74
2022/05/01 06:41:15;;;;;;;5.07;2.42;;;19.10;62.30;;;;;;10944747;32;20054;-74
2022/05/01 06:47:30;;;;;;;3.25;2.30;;;19.20;62.10;;;;;;10944599;32;20019;-74
2022/05/01 06:53:32;;;;;;;3.70;2.70;;;19.40;62.00;;;;;;10944011;32;20343;-73
2022/05/01 06:59:34;;;;;;;3.87;2.70;;;19.60;61.60;;;;;;10929336;32;20022;-73
2022/05/01 07:05:36;;;;;;;3.30;1.50;;;19.60;61.60;;;;;;10943406;32;20035;-72
2022/05/01 07:11:38;;;;;;;4.68;2.83;;;19.80;61.60;;;;;;10943444;32;20035;-74
2022/05/01 07:17:41;;;;;;;5.65;3.05;;;19.80;61.60;;;;;;10917717;32;20057;-74
2022/05/01 07:23:43;;;;;;;3.47;2.50;;;20.00;61.30;;;;;;10912395;32;20034;-74
2022/05/01 07:29:46;;;;;;;2.72;2.37;;;20.10;61.10;;;;;;10904967;32;20062;-73
2022/05/01 07:35:48;;;;;;;2.65;1.65;;;20.20;60.80;;;;;;10905130;32;20049;-74
2022/05/01 07:41:50;;;;;;;3.62;2.58;;;20.30;60.80;;;;;;10903092;32;20065;-73
2022/05/01 07:47:53;;;;;;;5.00;2.60;;;20.50;60.50;;;;;;10904715;32;20039;-72
2022/05/01 07:53:58;;;;;;;5.65;3.62;;;20.50;59.80;;;;;;10904523;32;20058;-74
2022/05/01 08:00:00;;;;;;;5.55;3.42;;;20.70;60.20;;;;;;10904257;32;20019;-73
2022/05/01 08:06:02;;;;;;;6.18;3.22;;;20.80;60.40;;;;;;10904035;32;20023;-73
2022/05/01 08:12:34;;;;;;;7.60;3.20;;;20.80;60.50;;;;;;10905475;32;20320;-74
2022/05/01 08:24:59;;;;;;;4.30;3.03;;;21.10;59.20;;;;;;10931371;32;20026;-71
2022/05/01 08:31:06;;;;;;;4.40;3.58;;;21.10;58.60;;;;;;10945774;32;20031;-74
2022/05/01 08:37:09;;;;;;;4.20;3.05;;;20.90;58.70;;;;;;10948425;32;20019;-74
2022/05/01 08:43:17;;;;;;;4.00;2.87;;;20.80;59.50;;;;;;10946476;32;20031;-73
2022/05/01 08:49:21;;;;;;;4.00;2.72;;;20.80;58.20;;;;;;10947260;32;20014;-72
2022/05/01 08:55:23;;;;;;;3.85;2.17;;;20.80;56.70;;;;;;10944671;32;20442;-71
2022/05/01 09:01:35;;;;;;;3.58;2.47;;;20.80;55.70;;;;;;10912564;32;20027;-73
2022/05/01 09:07:44;;;;;;;4.40;2.37;;;20.80;55.80;;;;;;10909513;32;20023;-74
2022/05/01 09:13:47;;;;;;;7.05;3.37;;;20.80;57.30;;;;;;10918625;27;20301;-73
2022/05/01 09:20:06;;;;;;;4.35;2.85;;;20.80;58.30;;;;;;10934230;32;20050;-74
2022/05/01 09:26:24;;;;;;;4.23;2.80;;;20.80;59.20;;;;;;10946763;32;20027;-73
2022/05/01 09:32:36;;;;;;;5.50;3.47;;;21.10;59.10;;;;;;10947014;32;20031;-73
2022/05/01 09:38:38;;;;;;;3.95;2.95;;;21.30;58.90;;;;;;10946975;32;20038;-72
2022/05/01 09:44:41;;;;;;;7.70;3.87;;;21.70;58.60;;;;;;10946384;32;20031;-74
2022/05/01 09:50:44;;;;;;;4.57;2.53;;;21.90;57.30;;;;;;10945909;32;20085;-73
2022/05/01 09:56:52;;;;;;;5.10;2.97;;;22.10;55.70;;;;;;10932654;32;20053;-74
2022/05/01 10:02:54;;;;;;;3.90;3.45;;;22.40;54.30;;;;;;10945885;32;20049;-73
2022/05/01 10:08:57;;;;;;;3.17;2.20;;;22.60;53.90;;;;;;10945537;32;20053;-72
2022/05/01 10:15:00;;;;;;;4.25;2.53;;;22.80;52.60;;;;;;10945589;32;20046;-72
2022/05/01 10:21:04;;;;;;;9.32;3.15;;;23.00;52.90;;;;;;10945449;32;20065;-73
2022/05/01 10:27:22;;;;;;;2.72;2.25;;;23.20;51.50;;;;;;10944602;32;20019;-73
2022/05/01 10:33:46;;;;;;;4.27;2.53;;;23.20;52.00;;;;;;10944915;32;20027;-73
2022/05/01 10:39:49;;;;;;;4.15;2.50;;;23.30;52.00;;;;;;10945129;32;20035;-74
2022/05/01 10:45:53;;;;;;;8.30;3.87;;;23.30;52.20;;;;;;10940389;32;20030;-72
2022/05/01 10:52:23;;;;;;;7.47;3.37;;;23.30;50.40;;;;;;10944259;32;20039;-71
2022/05/01 10:58:35;;;;;;;5.47;3.62;;;23.30;50.40;;;;;;10943957;32;20395;-71
2022/05/01 11:04:41;;;;;;;5.30;2.92;;;23.20;50.30;;;;;;10942166;32;20343;-70
2022/05/01 11:10:43;;;;;;;4.53;3.17;;;23.60;49.20;;;;;;10943414;32;20356;-71
2022/05/01 11:16:52;;;;;;;5.03;3.25;;;23.90;48.40;;;;;;10940976;32;20027;-72
2022/05/01 11:22:55;;;;;;;4.37;2.67;;;24.20;47.50;;;;;;10904013;32;20191;-71
2022/05/01 11:29:14;;;;;;;5.05;3.53;;;24.30;47.40;;;;;;10905166;32;20035;-70
2022/05/01 11:35:16;;;;;;;;;;;24.70;46.10;;;;;;10904501;32;20050;-71
2022/05/01 11:42:12;;;;;;;2.33;1.50;;;24.90;46.10;;;;;;10905026;32;19930;-71
2022/05/01 11:48:18;;;;;;;7.87;3.20;;;25.00;48.30;;;;;;10866457;32;20489;-70
2022/05/01 11:54:25;;;;;;;5.55;3.25;;;25.20;45.60;;;;;;10904689;32;20020;-70
2022/05/01 12:06:48;;;;;;;6.53;3.87;;;25.30;46.50;;;;;;10900339;32;20297;-71
2022/05/01 12:12:50;;;;;;;3.75;2.92;;;25.40;47.00;;;;;;10904259;32;20035;-70
2022/05/01 12:18:55;;;;;;;4.97;3.35;;;25.30;45.30;;;;;;10904071;32;20084;-71
2022/05/01 12:24:57;;;;;;;4.78;3.25;;;25.50;44.60;;;;;;10903661;32;20332;-71
2022/05/01 12:31:06;;;;;;;5.70;3.03;;;25.30;48.30;;;;;;10903841;32;20019;-71
2022/05/01 12:37:24;;;;;;;4.32;3.53;;;24.80;48.30;;;;;;10903573;32;20027;-70
2022/05/01 12:43:53;;;;;;;4.75;3.80;;;24.70;48.20;;;;;;10903597;32;20324;-70
2022/05/01 12:50:19;;;;;;;3.97;2.72;;;24.40;47.70;;;;;;10903392;32;20340;-71
2022/05/01 12:56:22;;;;;;;4.37;2.72;;;24.50;47.10;;;;;;10899061;32;20380;-71
2022/05/01 13:02:25;;;;;;;6.93;3.83;;;24.60;45.50;;;;;;10909291;32;20061;-70
2022/05/01 13:08:30;;;;;;;5.95;3.20;;;24.30;45.60;;;;;;10910283;32;20042;-73
2022/05/01 13:14:33;;;;;;;5.22;3.12;;;24.50;45.30;;;;;;10910082;32;20039;-74
2022/05/01 13:20:35;;;;;;;4.55;2.97;;;25.00;44.50;;;;;;10910082;32;20331;-74
2022/05/01 13:26:38;;;;;;;3.97;3.10;;;25.10;43.90;;;;;;10909750;32;20023;-72
2022/05/01 13:32:40;;;;;;;4.40;2.25;;;25.30;43.40;;;;;;10909311;32;20031;-74
2022/05/01 13:38:42;;;;;;;4.55;3.20;;;25.30;44.10;;;;;;10909110;32;20046;-74
2022/05/01 13:44:44;;;;;;;4.22;2.78;;;25.30;43.40;;;;;;10914974;32;20057;-73
2022/05/01 13:57:11;;;;;;;3.58;2.47;;;25.30;43.20;;;;;;10946506;32;20065;-74
2022/05/01 14:03:13;;;;;;;3.53;2.70;;;24.80;43.60;;;;;;10945993;32;20041;-72
2022/05/01 14:09:19;;;;;;;6.37;2.90;;;24.30;43.60;;;;;;10938399;32;20058;-73
2022/05/01 14:15:21;;;;;;;4.60;2.80;;;24.00;44.40;;;;;;10908122;32;20050;-73
2022/05/01 14:21:25;;;;;;;6.78;3.85;;;24.00;44.80;;;;;;10903782;32;20092;-72
2022/05/01 14:27:27;;;;;;;9.48;4.40;;;23.70;47.20;;;;;;10903388;32;20332;-73
2022/05/01 14:33:38;;;;;;;5.30;3.05;;;22.80;50.50;;;;;;10907091;32;20062;-72
2022/05/01 14:39:43;;;;;;;7.28;4.07;;;21.80;53.10;;;;;;10906786;32;20050;-72
2022/05/01 14:45:50;;;;;;;7.30;3.37;;;21.30;54.40;;;;;;10906642;32;20053;-72
2022/05/01 14:51:59;;;;;;;8.98;2.90;;;21.10;55.10;;;;;;10906472;32;20027;-72
2022/05/01 15:11:12;;;;;;;3.22;2.12;;;20.90;55.40;;;;;;10944430;32;20057;-71
2022/05/01 15:17:24;;;;;;;3.08;2.08;;;20.80;55.50;;;;;;10943622;32;20329;-71
2022/05/01 15:24:03;;;;;;;3.80;2.85;;;20.80;55.70;;;;;;10943117;32;20418;-71
2022/05/01 15:30:07;;;;;;;3.60;2.45;;;20.80;55.70;;;;;;10929888;32;20041;-72
2022/05/01 15:36:23;;;;;;;4.68;3.60;;;20.70;56.00;;;;;;10943516;32;20312;-73
2022/05/01 15:42:40;;;;;;;11.25;3.67;;;20.50;56.10;;;;;;10943201;32;20108;-73
2022/05/01 15:55:08;;;;;;;5.00;2.30;;;20.30;56.60;;;;;;10939113;32;20038;-73
2022/05/01 16:01:10;;;;;;;6.05;3.30;;;20.40;56.60;;;;;;10943012;32;20026;-72
2022/05/01 16:07:22;;;;;;;4.62;2.97;;;20.30;57.30;;;;;;10942879;32;20027;-73
2022/05/01 16:13:57;;;;;;;3.60;2.58;;;20.20;58.70;;;;;;10921101;32;20438;-73
2022/05/01 16:20:09;;;;;;;6.45;3.22;;;20.30;58.80;;;;;;10900991;32;20380;-73
2022/05/01 16:26:14;;;;;;;3.58;2.45;;;20.30;59.50;;;;;;10905297;32;20015;-73
2022/05/01 16:32:39;;;;;;;5.22;3.00;;;20.30;60.50;;;;;;10905427;32;20380;-73
2022/05/01 16:38:42;;;;;;;3.60;2.50;;;20.30;60.40;;;;;;10912086;32;20019;-74
2022/05/01 16:44:46;;;;;;;6.28;3.62;;;20.20;60.40;;;;;;10912546;32;20027;-73
2022/05/01 16:50:52;;;;;;;4.25;2.83;;;20.20;60.30;;;;;;10913498;32;20380;-74
2022/05/01 16:56:57;;;;;;;4.05;3.00;;;20.10;60.60;;;;;;10898094;32;20046;-71
2022/05/01 17:03:00;;;;;;;6.05;3.15;;;20.10;60.60;;;;;;10910451;32;20316;-71
2022/05/01 17:09:06;;;;;;;4.53;3.17;;;20.00;60.70;;;;;;10910171;32;20042;-72
2022/05/01 17:15:21;;;;;;;5.45;3.42;;;20.00;61.10;;;;;;10926284;27;20038;-71
2022/05/01 17:22:13;;;;;;;3.08;2.78;;;20.00;61.20;;;;;;10946222;32;20414;-71
2022/05/01 17:29:12;;;;;;;6.65;4.70;;;20.00;61.20;;;;;;10869141;32;20190;-71
2022/05/01 17:35:37;;;;;;;5.30;3.53;;;20.00;61.40;;;;;;10853721;32;20294;-71
2022/05/01 17:41:42;;;;;;;7.37;3.50;;;20.00;61.60;;;;;;10866805;32;20074;-72
2022/05/01 17:47:49;;;;;;;4.68;3.28;;;19.80;61.90;;;;;;10868282;32;20032;-71
2022/05/01 17:53:54;;;;;;;5.05;3.22;;;19.80;62.20;;;;;;10867952;32;20082;-71
2022/05/01 17:59:58;;;;;;;4.65;3.08;;;19.80;62.40;;;;;;10883557;32;20054;-71
2022/05/01 18:12:56;;;;;;;4.32;2.95;;;19.60;63.20;;;;;;10945754;32;20023;-71
2022/05/01 18:19:39;;;;;;;3.25;2.53;;;19.50;63.20;;;;;;10945608;32;20045;-71
2022/05/01 18:25:52;;;;;;;6.03;3.37;;;19.40;63.70;;;;;;10867034;32;20028;-71
2022/05/01 18:32:09;;;;;;;4.93;3.55;;;19.40;64.40;;;;;;10865913;32;20038;-70
2022/05/01 18:38:20;;;;;;;5.05;3.55;;;19.30;64.50;;;;;;10865640;32;20024;-71
2022/05/01 18:44:48;;;;;;;6.40;4.30;;;19.20;65.00;;;;;;10864093;32;20058;-71
2022/05/01 18:50:53;;;;;;;6.05;4.22;;;19.20;64.90;;;;;;10865669;32;20023;-71
2022/05/01 18:56:56;;;;;;;6.95;3.80;;;19.10;65.50;;;;;;10858719;32;20438;-71
2022/05/01 19:03:09;;;;;;;6.28;3.65;;;19.00;65.30;;;;;;10905299;32;20050;-71
2022/05/01 19:09:11;;;;;;;5.93;3.60;;;18.90;65.80;;;;;;10905723;32;20050;-71
2022/05/01 19:15:40;;;;;;;5.40;3.72;;;18.80;65.70;;;;;;10905533;32;20027;-71
2022/05/01 19:22:03;;;;;;;5.95;3.62;;;18.80;66.30;;;;;;10900324;32;20023;-71
2022/05/01 19:28:39;;;;;;;5.68;3.37;;;18.80;66.10;;;;;;10905397;32;20066;-71
2022/05/01 19:35:04;;;;;;;6.68;4.62;;;18.80;66.60;;;;;;10901540;32;20058;-71
2022/05/01 19:41:33;;;;;;;6.30;4.07;;;18.80;66.60;;;;;;10904998;32;20023;-71
2022/05/01 19:54:55;;;;;;;6.95;4.95;;;18.70;67.10;;;;;;10916688;32;20069;-71
2022/05/01 20:01:07;;;;;;;8.95;5.05;;;18.70;67.00;;;;;;10904338;32;20105;-71
2022/05/01 20:07:11;;;;;;;8.90;4.40;;;18.60;67.00;;;;;;10915300;32;20027;-71
2022/05/01 20:13:13;;;;;;;6.53;3.87;;;18.50;67.40;;;;;;10911652;32;20068;-71
2022/05/01 20:19:57;;;;;;;5.68;4.12;;;18.50;67.30;;;;;;10909010;32;20030;-71
2022/05/01 20:26:13;;;;;;;6.28;4.65;;;18.40;67.30;;;;;;10904128;32;20032;-71
2022/05/01 20:32:27;;;;;;;7.55;5.22;;;18.30;67.40;;;;;;10903873;32;20086;-71
2022/05/01 20:38:45;;;;;;;7.20;4.72;;;18.20;68.10;;;;;;10903679;32;20328;-71
2022/05/01 20:45:10;;;;;;;5.90;3.65;;;18.20;68.30;;;;;;10903740;32;20027;-71
2022/05/01 20:51:16;;;;;;;8.25;6.40;;;18.20;68.60;;;;;;10899517;32;20031;-71
2022/05/01 20:57:20;;;;;;;7.50;4.85;;;18.10;69.30;;;;;;10890213;32;20028;-71
2022/05/01 21:03:23;;;;;;;7.37;4.25;;;18.10;69.00;;;;;;10890300;32;20062;-71
2022/05/01 21:09:27;;;;;;;8.02;4.22;;;18.00;68.90;;;;;;10903548;32;20046;-71
2022/05/01 21:15:29;;;;;;;4.87;3.80;;;17.90;68.90;;;;;;10903242;32;20031;-72
2022/05/01 21:21:31;;;;;;;8.18;5.57;;;17.80;68.80;;;;;;10907157;32;20011;-71
2022/05/01 21:27:37;;;;;;;6.03;3.95;;;17.70;69.10;;;;;;10909838;32;20348;-71
2022/05/01 21:33:45;;;;;;;5.82;4.57;;;17.80;69.20;;;;;;10896603;32;20071;-71
2022/05/01 21:40:04;;;;;;;7.30;4.65;;;17.80;69.10;;;;;;10896101;32;20053;-71
2022/05/01 21:46:10;;;;;;;5.12;4.32;;;17.80;69.00;;;;;;10904872;32;20016;-71
2022/05/01 21:52:13;;;;;;;6.75;5.43;;;17.70;69.10;;;;;;10908913;32;20035;-71
2022/05/01 21:58:15;;;;;;;5.82;3.55;;;17.70;69.30;;;;;;10908753;32;20077;-71
2022/05/01 22:04:17;;;;;;;6.12;4.62;;;17.70;69.30;;;;;;10908339;32;20057;-71
2022/05/01 22:10:20;;;;;;;6.32;4.70;;;17.70;69.50;;;;;;10908095;32;20054;-71
2022/05/01 22:16:22;;;;;;;6.60;5.20;;;17.70;69.80;;;;;;10907918;32;20020;-71
2022/05/01 22:22:24;;;;;;;7.68;4.80;;;17.60;69.80;;;;;;10907905;32;20024;-71
2022/05/01 22:28:49;;;;;;;6.10;4.72;;;17.50;69.80;;;;;;10907571;32;20297;-71
2022/05/01 22:41:13;;;;;;;8.95;5.55;;;17.30;69.80;;;;;;10907139;32;20317;-71
2022/05/01 22:47:15;;;;;;;7.95;5.87;;;17.30;69.90;;;;;;10906944;32;20063;-71
2022/05/01 22:53:17;;;;;;;7.50;4.93;;;17.30;70.00;;;;;;10906801;32;20344;-71
2022/05/01 22:59:20;;;;;;;7.35;5.45;;;17.30;69.90;;;;;;10906514;32;20023;-71
2022/05/01 23:05:23;;;;;;;6.57;4.87;;;17.30;70.30;;;;;;10906182;32;20392;-71
2022/05/01 23:11:25;;;;;;;8.23;5.10;;;17.30;70.20;;;;;;10906700;32;20380;-73
2022/05/01 23:17:27;;;;;;;15.25;4.95;;;17.30;70.20;;;;;;10893073;32;20030;-73
2022/05/01 23:23:29;;;;;;;8.23;5.95;;;17.30;70.10;;;;;;10906031;32;20028;-73
2022/05/01 23:36:21;;;;;;;6.97;5.43;;;17.20;70.10;;;;;;10905834;32;20015;-73
2022/05/01 23:42:24;;;;;;;5.00;4.30;;;17.10;70.20;;;;;;10905475;32;20467;-73
2022/05/01 23:48:26;;;;;;;8.13;6.62;;;17.10;70.40;;;;;;10905559;32;20050;-73
2022/05/01 23:54:28;;;;;;;6.75;4.55;;;17.10;70.70;;;;;;10905324;32;20396;-73
